sensor_id;sensor_type;location;lat;lon;timestamp;temperature;humidity
23717;DHT22;22094;52.130;5.598;2022-12-13T00:00:39;-6.20;99.90
23717;DHT22;22094;52.130;5.598;2022-12-13T00:03:06;-6.80;99.90
23717;DHT22;22094;52.130;5.598;2022-12-13T00:05:32;-6.40;99.90
23717;DHT22;22094;52.130;5.598;2022-12-13T00:08:00;-6.50;99.90
23717;DHT22;22094;52.130;5.598;2022-12-13T00:10:27;-6.70;99.90
23717;DHT22;22094;52.130;5.598;2022-12-13T00:12:53;-6.70;99.90
23717;DHT22;22094;52.130;5.598;2022-12-13T00:15:18;-6.70;99.90
23717;DHT22;22094;52.130;5.598;2022-12-13T00:17:44;-6.90;99.90
23717;DHT22;22094;52.130;5.598;2022-12-13T00:20:10;-7.00;99.90
23717;DHT22;22094;52.130;5.598;2022-12-13T00:22:36;-7.00;99.90
23717;DHT22;22094;52.130;5.598;2022-12-13T00:25:02;-7.00;99.90
23717;DHT22;22094;52.130;5.598;2022-12-13T00:27:28;-7.00;99.90
23717;DHT22;22094;52.130;5.598;2022-12-13T00:29:54;-7.10;99.90
23717;DHT22;22094;52.130;5.598;2022-12-13T00:32:19;-7.10;99.90
23717;DHT22;22094;52.130;5.598;2022-12-13T00:34:45;-7.10;99.90
23717;DHT22;22094;52.130;5.598;2022-12-13T00:37:11;-7.10;99.90
23717;DHT22;22094;52.130;5.598;2022-12-13T00:39:36;-7.10;99.90
23717;DHT22;22094;52.130;5.598;2022-12-13T00:42:03;-7.10;99.90
23717;DHT22;22094;52.130;5.598;2022-12-13T00:44:28;-7.00;99.90
23717;DHT22;22094;52.130;5.598;2022-12-13T00:46:55;-7.00;99.90
23717;DHT22;22094;52.130;5.598;2022-12-13T00:49:21;-7.00;99.90
23717;DHT22;22094;52.130;5.598;2022-12-13T00:51:46;-7.00;99.90
23717;DHT22;22094;52.130;5.598;2022-12-13T00:54:14;-7.00;99.90
23717;DHT22;22094;52.130;5.598;2022-12-13T00:56:39;-7.10;99.90
23717;DHT22;22094;52.130;5.598;2022-12-13T00:59:05;-7.20;99.90
23717;DHT22;22094;52.130;5.598;2022-12-13T01:01:33;-6.50;99.90
23717;DHT22;22094;52.130;5.598;2022-12-13T01:04:02;-7.20;99.90
23717;DHT22;22094;52.130;5.598;2022-12-13T01:06:41;-7.30;99.90
23717;DHT22;22094;52.130;5.598;2022-12-13T01:09:15;-7.20;99.90
23717;DHT22;22094;52.130;5.598;2022-12-13T01:11:42;-7.40;99.90
23717;DHT22;22094;52.130;5.598;2022-12-13T01:14:07;-7.40;99.90
23717;DHT22;22094;52.130;5.598;2022-12-13T01:16:33;-7.70;99.90
23717;DHT22;22094;52.130;5.598;2022-12-13T01:18:59;-7.50;99.90
23717;DHT22;22094;52.130;5.598;2022-12-13T01:21:24;-7.40;99.90
23717;DHT22;22094;52.130;5.598;2022-12-13T01:23:50;-7.50;99.90
23717;DHT22;22094;52.130;5.598;2022-12-13T01:26:18;-7.10;99.90
23717;DHT22;22094;52.130;5.598;2022-12-13T01:28:44;-7.70;99.90
23717;DHT22;22094;52.130;5.598;2022-12-13T01:31:13;-7.70;99.90
23717;DHT22;22094;52.130;5.598;2022-12-13T01:33:39;-7.70;99.90
23717;DHT22;22094;52.130;5.598;2022-12-13T01:36:07;-7.10;99.90
23717;DHT22;22094;52.130;5.598;2022-12-13T01:38:34;-7.90;99.90
23717;DHT22;22094;52.130;5.598;2022-12-13T01:41:00;-7.80;99.90
23717;DHT22;22094;52.130;5.598;2022-12-13T01:43:49;-7.80;99.90
23717;DHT22;22094;52.130;5.598;2022-12-13T01:46:16;-7.80;99.90
23717;DHT22;22094;52.130;5.598;2022-12-13T01:51:16;-7.70;99.90
23717;DHT22;22094;52.130;5.598;2022-12-13T01:53:43;-7.70;99.90
23717;DHT22;22094;52.130;5.598;2022-12-13T01:56:22;-8.10;99.90
23717;DHT22;22094;52.130;5.598;2022-12-13T01:58:51;-7.60;99.90
23717;DHT22;22094;52.130;5.598;2022-12-13T02:01:20;-7.40;99.90
23717;DHT22;22094;52.130;5.598;2022-12-13T02:03:46;-7.60;99.90
23717;DHT22;22094;52.130;5.598;2022-12-13T02:06:25;-7.40;99.90
23717;DHT22;22094;52.130;5.598;2022-12-13T02:08:51;-7.40;99.90
23717;DHT22;22094;52.130;5.598;2022-12-13T02:11:17;-7.40;99.90
23717;DHT22;22094;52.130;5.598;2022-12-13T02:13:43;-6.80;99.90
23717;DHT22;22094;52.130;5.598;2022-12-13T02:16:37;-7.30;99.90
23717;DHT22;22094;52.130;5.598;2022-12-13T02:25:23;-7.60;99.90
23717;DHT22;22094;52.130;5.598;2022-12-13T02:27:59;-7.20;99.90
23717;DHT22;22094;52.130;5.598;2022-12-13T02:30:40;-7.80;99.90
23717;DHT22;22094;52.130;5.598;2022-12-13T02:33:52;-7.90;99.90
23717;DHT22;22094;52.130;5.598;2022-12-13T02:36:31;-7.90;99.90
23717;DHT22;22094;52.130;5.598;2022-12-13T02:39:16;-7.50;99.90
23717;DHT22;22094;52.130;5.598;2022-12-13T02:41:49;-8.10;99.90
23717;DHT22;22094;52.130;5.598;2022-12-13T02:44:33;-8.00;99.90
23717;DHT22;22094;52.130;5.598;2022-12-13T02:47:05;-7.80;99.90
23717;DHT22;22094;52.130;5.598;2022-12-13T02:49:37;-7.60;99.90
23717;DHT22;22094;52.130;5.598;2022-12-13T02:52:06;-7.50;99.90
23717;DHT22;22094;52.130;5.598;2022-12-13T02:54:33;-7.40;99.90
23717;DHT22;22094;52.130;5.598;2022-12-13T02:56:59;-7.40;99.90
23717;DHT22;22094;52.130;5.598;2022-12-13T02:59:32;-7.50;99.90
23717;DHT22;22094;52.130;5.598;2022-12-13T03:02:26;-7.50;99.90
23717;DHT22;22094;52.130;5.598;2022-12-13T03:05:16;-7.50;99.90
23717;DHT22;22094;52.130;5.598;2022-12-13T03:08:24;-7.40;99.90
23717;DHT22;22094;52.130;5.598;2022-12-13T03:11:03;-7.40;99.90
23717;DHT22;22094;52.130;5.598;2022-12-13T03:18:56;-7.30;99.90
23717;DHT22;22094;52.130;5.598;2022-12-13T03:21:22;-7.20;99.90
23717;DHT22;22094;52.130;5.598;2022-12-13T03:23:48;-7.10;99.90
23717;DHT22;22094;52.130;5.598;2022-12-13T03:26:17;-7.20;99.90
23717;DHT22;22094;52.130;5.598;2022-12-13T03:28:44;-7.20;99.90
23717;DHT22;22094;52.130;5.598;2022-12-13T03:31:09;-7.40;99.90
23717;DHT22;22094;52.130;5.598;2022-12-13T03:33:35;-7.30;99.90
23717;DHT22;22094;52.130;5.598;2022-12-13T03:36:03;-7.40;99.90
23717;DHT22;22094;52.130;5.598;2022-12-13T03:38:29;-7.60;99.90
23717;DHT22;22094;52.130;5.598;2022-12-13T03:40:58;-7.70;99.90
23717;DHT22;22094;52.130;5.598;2022-12-13T03:43:25;-7.70;99.90
23717;DHT22;22094;52.130;5.598;2022-12-13T03:45:52;-7.70;99.90
23717;DHT22;22094;52.130;5.598;2022-12-13T03:48:18;-7.70;99.90
23717;DHT22;22094;52.130;5.598;2022-12-13T03:50:43;-7.80;99.90
23717;DHT22;22094;52.130;5.598;2022-12-13T03:53:09;-7.70;99.90
23717;DHT22;22094;52.130;5.598;2022-12-13T03:55:35;-7.70;99.90
23717;DHT22;22094;52.130;5.598;2022-12-13T03:58:01;-7.70;99.90
23717;DHT22;22094;52.130;5.598;2022-12-13T04:00:26;-7.60;99.90
23717;DHT22;22094;52.130;5.598;2022-12-13T04:02:52;-7.60;99.90
23717;DHT22;22094;52.130;5.598;2022-12-13T04:05:18;-7.70;99.90
23717;DHT22;22094;52.130;5.598;2022-12-13T04:07:43;-7.90;99.90
23717;DHT22;22094;52.130;5.598;2022-12-13T04:10:09;-7.80;99.90
23717;DHT22;22094;52.130;5.598;2022-12-13T04:12:35;-7.70;99.90
23717;DHT22;22094;52.130;5.598;2022-12-13T04:15:19;-7.70;99.90
23717;DHT22;22094;52.130;5.598;2022-12-13T04:17:44;-7.70;99.90
23717;DHT22;22094;52.130;5.598;2022-12-13T04:20:10;-7.70;99.90
23717;DHT22;22094;52.130;5.598;2022-12-13T04:22:36;-7.80;99.90
23717;DHT22;22094;52.130;5.598;2022-12-13T04:25:02;-7.20;99.90
23717;DHT22;22094;52.130;5.598;2022-12-13T04:27:28;-7.90;99.90
23717;DHT22;22094;52.130;5.598;2022-12-13T04:29:54;-7.90;99.90
23717;DHT22;22094;52.130;5.598;2022-12-13T04:32:19;-7.90;99.90
23717;DHT22;22094;52.130;5.598;2022-12-13T04:34:45;-7.80;99.90
23717;DHT22;22094;52.130;5.598;2022-12-13T04:37:11;-7.80;99.90
23717;DHT22;22094;52.130;5.598;2022-12-13T04:39:36;-7.80;99.90
23717;DHT22;22094;52.130;5.598;2022-12-13T04:42:02;-7.80;99.90
23717;DHT22;22094;52.130;5.598;2022-12-13T04:44:28;-7.80;99.90
23717;DHT22;22094;52.130;5.598;2022-12-13T04:46:54;-7.90;99.90
23717;DHT22;22094;52.130;5.598;2022-12-13T04:49:20;-8.10;99.90
23717;DHT22;22094;52.130;5.598;2022-12-13T04:51:45;-8.20;99.90
23717;DHT22;22094;52.130;5.598;2022-12-13T04:54:11;-8.30;99.90
23717;DHT22;22094;52.130;5.598;2022-12-13T04:56:37;-8.10;99.90
23717;DHT22;22094;52.130;5.598;2022-12-13T04:59:02;-8.10;99.90
23717;DHT22;22094;52.130;5.598;2022-12-13T05:01:28;-8.00;99.90
23717;DHT22;22094;52.130;5.598;2022-12-13T05:03:54;-8.00;99.90
23717;DHT22;22094;52.130;5.598;2022-12-13T05:06:19;-8.00;99.90
23717;DHT22;22094;52.130;5.598;2022-12-13T05:08:45;-8.00;99.90
23717;DHT22;22094;52.130;5.598;2022-12-13T05:11:11;-7.90;99.90
23717;DHT22;22094;52.130;5.598;2022-12-13T05:13:37;-8.10;99.90
23717;DHT22;22094;52.130;5.598;2022-12-13T05:16:05;-8.00;99.90
23717;DHT22;22094;52.130;5.598;2022-12-13T05:18:31;-8.10;99.90
23717;DHT22;22094;52.130;5.598;2022-12-13T05:21:04;-7.70;99.90
23717;DHT22;22094;52.130;5.598;2022-12-13T05:23:30;-8.20;99.90
23717;DHT22;22094;52.130;5.598;2022-12-13T05:25:56;-8.00;99.90
23717;DHT22;22094;52.130;5.598;2022-12-13T05:28:23;-8.20;99.90
23717;DHT22;22094;52.130;5.598;2022-12-13T05:30:51;-8.30;99.90
23717;DHT22;22094;52.130;5.598;2022-12-13T05:33:17;-8.30;99.90
23717;DHT22;22094;52.130;5.598;2022-12-13T05:35:43;-8.30;99.90
23717;DHT22;22094;52.130;5.598;2022-12-13T05:38:09;-8.30;99.90
23717;DHT22;22094;52.130;5.598;2022-12-13T05:40:34;-8.40;99.90
23717;DHT22;22094;52.130;5.598;2022-12-13T05:43:00;-8.40;99.90
23717;DHT22;22094;52.130;5.598;2022-12-13T05:45:26;-8.50;99.90
23717;DHT22;22094;52.130;5.598;2022-12-13T05:47:51;-8.50;99.90
23717;DHT22;22094;52.130;5.598;2022-12-13T05:50:17;-8.60;99.90
23717;DHT22;22094;52.130;5.598;2022-12-13T05:52:43;-8.50;99.90
23717;DHT22;22094;52.130;5.598;2022-12-13T05:55:10;-8.70;99.90
23717;DHT22;22094;52.130;5.598;2022-12-13T05:57:36;-8.60;99.90
23717;DHT22;22094;52.130;5.598;2022-12-13T06:00:03;-8.70;99.90
23717;DHT22;22094;52.130;5.598;2022-12-13T06:02:29;-8.60;99.90
23717;DHT22;22094;52.130;5.598;2022-12-13T06:04:55;-8.60;99.90
23717;DHT22;22094;52.130;5.598;2022-12-13T06:07:21;-8.50;99.90
23717;DHT22;22094;52.130;5.598;2022-12-13T06:09:47;-8.00;99.90
23717;DHT22;22094;52.130;5.598;2022-12-13T06:12:13;-8.20;99.90
23717;DHT22;22094;52.130;5.598;2022-12-13T06:14:40;-8.20;99.90
23717;DHT22;22094;52.130;5.598;2022-12-13T06:17:06;-8.20;99.90
23717;DHT22;22094;52.130;5.598;2022-12-13T06:19:32;-8.30;99.90
23717;DHT22;22094;52.130;5.598;2022-12-13T06:21:57;-8.30;99.90
23717;DHT22;22094;52.130;5.598;2022-12-13T06:24:23;-8.40;99.90
23717;DHT22;22094;52.130;5.598;2022-12-13T06:26:49;-8.30;99.90
23717;DHT22;22094;52.130;5.598;2022-12-13T06:29:17;-8.40;99.90
23717;DHT22;22094;52.130;5.598;2022-12-13T06:31:43;-8.30;99.90
23717;DHT22;22094;52.130;5.598;2022-12-13T06:34:09;-8.40;99.90
23717;DHT22;22094;52.130;5.598;2022-12-13T06:36:34;-8.50;99.90
23717;DHT22;22094;52.130;5.598;2022-12-13T06:39:04;-8.40;99.90
23717;DHT22;22094;52.130;5.598;2022-12-13T06:41:30;-8.40;99.90
23717;DHT22;22094;52.130;5.598;2022-12-13T06:43:56;-8.60;99.90
23717;DHT22;22094;52.130;5.598;2022-12-13T06:46:22;-8.50;99.90
23717;DHT22;22094;52.130;5.598;2022-12-13T06:48:48;-8.40;99.90
23717;DHT22;22094;52.130;5.598;2022-12-13T06:51:14;-8.40;99.90
23717;DHT22;22094;52.130;5.598;2022-12-13T06:53:40;-8.40;99.90
23717;DHT22;22094;52.130;5.598;2022-12-13T06:56:09;-8.30;99.90
23717;DHT22;22094;52.130;5.598;2022-12-13T06:58:35;-8.30;99.90
23717;DHT22;22094;52.130;5.598;2022-12-13T07:01:19;-8.50;99.90
23717;DHT22;22094;52.130;5.598;2022-12-13T07:03:44;-8.50;99.90
23717;DHT22;22094;52.130;5.598;2022-12-13T07:06:15;-8.60;99.90
23717;DHT22;22094;52.130;5.598;2022-12-13T07:08:43;-8.50;99.90
23717;DHT22;22094;52.130;5.598;2022-12-13T07:11:17;-8.60;99.90
23717;DHT22;22094;52.130;5.598;2022-12-13T07:13:43;-8.50;99.90
23717;DHT22;22094;52.130;5.598;2022-12-13T07:16:09;-8.30;99.90
23717;DHT22;22094;52.130;5.598;2022-12-13T07:18:35;-8.50;99.90
23717;DHT22;22094;52.130;5.598;2022-12-13T07:21:05;-8.50;99.90
23717;DHT22;22094;52.130;5.598;2022-12-13T07:23:30;-8.50;99.90
23717;DHT22;22094;52.130;5.598;2022-12-13T07:25:56;-8.50;99.90
23717;DHT22;22094;52.130;5.598;2022-12-13T07:28:22;-8.50;99.90
23717;DHT22;22094;52.130;5.598;2022-12-13T07:30:48;-8.30;99.90
23717;DHT22;22094;52.130;5.598;2022-12-13T07:33:14;-8.10;99.90
23717;DHT22;22094;52.130;5.598;2022-12-13T07:35:40;-8.00;99.90
23717;DHT22;22094;52.130;5.598;2022-12-13T07:38:07;-7.50;99.90
23717;DHT22;22094;52.130;5.598;2022-12-13T07:40:34;-7.90;99.90
23717;DHT22;22094;52.130;5.598;2022-12-13T07:43:00;-7.80;99.90
23717;DHT22;22094;52.130;5.598;2022-12-13T07:45:25;-7.80;99.90
23717;DHT22;22094;52.130;5.598;2022-12-13T07:47:51;-7.70;99.90
23717;DHT22;22094;52.130;5.598;2022-12-13T07:50:17;-7.90;99.90
23717;DHT22;22094;52.130;5.598;2022-12-13T07:52:48;-8.20;99.90
23717;DHT22;22094;52.130;5.598;2022-12-13T07:55:15;-8.20;99.90
23717;DHT22;22094;52.130;5.598;2022-12-13T07:57:42;-8.40;99.90
23717;DHT22;22094;52.130;5.598;2022-12-13T08:00:08;-8.40;99.90
23717;DHT22;22094;52.130;5.598;2022-12-13T08:02:34;-8.40;99.90
23717;DHT22;22094;52.130;5.598;2022-12-13T08:04:59;-8.50;99.90
23717;DHT22;22094;52.130;5.598;2022-12-13T08:07:25;-8.20;99.90
23717;DHT22;22094;52.130;5.598;2022-12-13T08:09:51;-8.30;99.90
23717;DHT22;22094;52.130;5.598;2022-12-13T08:12:16;-8.30;99.90
23717;DHT22;22094;52.130;5.598;2022-12-13T08:14:42;-8.40;99.90
23717;DHT22;22094;52.130;5.598;2022-12-13T08:17:07;-8.20;99.90
23717;DHT22;22094;52.130;5.598;2022-12-13T08:19:33;-7.80;99.90
23717;DHT22;22094;52.130;5.598;2022-12-13T08:21:59;-8.10;99.90
23717;DHT22;22094;52.130;5.598;2022-12-13T08:24:28;-8.20;99.90
23717;DHT22;22094;52.130;5.598;2022-12-13T08:26:56;-8.10;99.90
23717;DHT22;22094;52.130;5.598;2022-12-13T08:29:25;-8.20;99.90
23717;DHT22;22094;52.130;5.598;2022-12-13T08:34:16;-6.10;99.90
23717;DHT22;22094;52.130;5.598;2022-12-13T08:36:42;-8.10;99.90
23717;DHT22;22094;52.130;5.598;2022-12-13T08:39:08;-7.70;99.90
23717;DHT22;22094;52.130;5.598;2022-12-13T08:46:25;-7.30;99.90
23717;DHT22;22094;52.130;5.598;2022-12-13T08:48:52;-7.10;99.90
23717;DHT22;22094;52.130;5.598;2022-12-13T08:51:18;-7.00;99.90
23717;DHT22;22094;52.130;5.598;2022-12-13T08:53:51;-9.30;99.90
23717;DHT22;22094;52.130;5.598;2022-12-13T08:56:16;-6.80;99.90
23717;DHT22;22094;52.130;5.598;2022-12-13T08:58:43;-5.70;99.90
23717;DHT22;22094;52.130;5.598;2022-12-13T09:01:09;-6.10;99.90
23717;DHT22;22094;52.130;5.598;2022-12-13T09:03:38;-6.90;99.90
23717;DHT22;22094;52.130;5.598;2022-12-13T09:06:15;-6.80;99.90
23717;DHT22;22094;52.130;5.598;2022-12-13T09:08:43;-6.60;99.90
23717;DHT22;22094;52.130;5.598;2022-12-13T09:11:10;-6.40;99.90
23717;DHT22;22094;52.130;5.598;2022-12-13T09:13:36;-6.30;99.90
23717;DHT22;22094;52.130;5.598;2022-12-13T09:16:04;-6.00;99.90
23717;DHT22;22094;52.130;5.598;2022-12-13T09:18:30;-6.00;99.90
23717;DHT22;22094;52.130;5.598;2022-12-13T09:23:21;-9.10;99.90
23717;DHT22;22094;52.130;5.598;2022-12-13T09:25:54;-5.30;99.90
23717;DHT22;22094;52.130;5.598;2022-12-13T09:28:20;-5.50;99.90
23717;DHT22;22094;52.130;5.598;2022-12-13T09:30:46;-5.60;99.90
23717;DHT22;22094;52.130;5.598;2022-12-13T09:33:11;-6.40;99.90
23717;DHT22;22094;52.130;5.598;2022-12-13T09:35:37;-5.40;99.90
23717;DHT22;22094;52.130;5.598;2022-12-13T09:38:03;-5.30;99.90
23717;DHT22;22094;52.130;5.598;2022-12-13T09:40:30;-5.20;99.90
23717;DHT22;22094;52.130;5.598;2022-12-13T09:42:57;-5.20;99.90
23717;DHT22;22094;52.130;5.598;2022-12-13T09:45:23;-4.80;99.90
23717;DHT22;22094;52.130;5.598;2022-12-13T09:47:50;-4.90;99.90
23717;DHT22;22094;52.130;5.598;2022-12-13T09:50:29;-4.80;99.90
23717;DHT22;22094;52.130;5.598;2022-12-13T09:52:59;-4.60;99.90
23717;DHT22;22094;52.130;5.598;2022-12-13T09:55:30;-4.10;99.90
23717;DHT22;22094;52.130;5.598;2022-12-13T09:57:57;-4.50;99.90
23717;DHT22;22094;52.130;5.598;2022-12-13T10:00:32;-4.10;99.90
23717;DHT22;22094;52.130;5.598;2022-12-13T10:02:59;-4.30;99.90
23717;DHT22;22094;52.130;5.598;2022-12-13T10:05:35;-4.30;99.90
23717;DHT22;22094;52.130;5.598;2022-12-13T10:10:36;-4.10;99.90
23717;DHT22;22094;52.130;5.598;2022-12-13T10:15:50;-3.80;99.90
23717;DHT22;22094;52.130;5.598;2022-12-13T10:18:36;-3.50;99.90
23717;DHT22;22094;52.130;5.598;2022-12-13T10:21:08;-3.30;99.90
23717;DHT22;22094;52.130;5.598;2022-12-13T10:23:34;0.10;99.90
23717;DHT22;22094;52.130;5.598;2022-12-13T10:26:00;-3.40;99.90
23717;DHT22;22094;52.130;5.598;2022-12-13T10:28:29;-3.30;99.90
23717;DHT22;22094;52.130;5.598;2022-12-13T10:30:56;-3.20;99.90
23717;DHT22;22094;52.130;5.598;2022-12-13T10:33:54;-3.20;99.90
23717;DHT22;22094;52.130;5.598;2022-12-13T10:36:34;-3.30;99.90
23717;DHT22;22094;52.130;5.598;2022-12-13T10:39:03;-3.10;99.90
23717;DHT22;22094;52.130;5.598;2022-12-13T10:41:37;-3.00;99.90
23717;DHT22;22094;52.130;5.598;2022-12-13T10:44:18;-3.00;99.90
23717;DHT22;22094;52.130;5.598;2022-12-13T10:46:50;-3.20;99.90
23717;DHT22;22094;52.130;5.598;2022-12-13T10:49:20;-3.10;99.90
23717;DHT22;22094;52.130;5.598;2022-12-13T10:51:46;-3.10;99.90
23717;DHT22;22094;52.130;5.598;2022-12-13T10:54:28;-2.60;99.90
23717;DHT22;22094;52.130;5.598;2022-12-13T10:56:55;-2.70;99.90
23717;DHT22;22094;52.130;5.598;2022-12-13T10:59:36;-2.40;99.90
23717;DHT22;22094;52.130;5.598;2022-12-13T11:04:59;-2.40;99.90
23717;DHT22;22094;52.130;5.598;2022-12-13T11:07:40;-2.30;99.90
23717;DHT22;22094;52.130;5.598;2022-12-13T11:12:44;-2.30;99.90
23717;DHT22;22094;52.130;5.598;2022-12-13T11:15:17;-2.30;99.90
23717;DHT22;22094;52.130;5.598;2022-12-13T11:17:49;-2.00;99.90
23717;DHT22;22094;52.130;5.598;2022-12-13T11:20:21;-2.20;99.90
23717;DHT22;22094;52.130;5.598;2022-12-13T11:22:48;-2.20;99.90
23717;DHT22;22094;52.130;5.598;2022-12-13T11:25:19;-2.10;99.90
23717;DHT22;22094;52.130;5.598;2022-12-13T11:31:00;-1.40;99.90
23717;DHT22;22094;52.130;5.598;2022-12-13T11:39:11;-1.80;99.90
23717;DHT22;22094;52.130;5.598;2022-12-13T11:41:54;-2.10;99.90
23717;DHT22;22094;52.130;5.598;2022-12-13T11:46:58;-2.00;99.90
23717;DHT22;22094;52.130;5.598;2022-12-13T11:49:45;-1.50;99.90
23717;DHT22;22094;52.130;5.598;2022-12-13T11:54:59;-1.90;99.90
23717;DHT22;22094;52.130;5.598;2022-12-13T11:57:43;-2.00;99.90
23717;DHT22;22094;52.130;5.598;2022-12-13T12:02:51;-2.10;99.90
23717;DHT22;22094;52.130;5.598;2022-12-13T12:08:36;-2.00;99.90
23717;DHT22;22094;52.130;5.598;2022-12-13T12:11:23;-2.00;99.90
23717;DHT22;22094;52.130;5.598;2022-12-13T12:13:54;-2.10;99.90
23717;DHT22;22094;52.130;5.598;2022-12-13T12:16:41;1.10;99.90
23717;DHT22;22094;52.130;5.598;2022-12-13T12:19:19;-2.30;99.90
23717;DHT22;22094;52.130;5.598;2022-12-13T12:25:37;-2.00;99.90
23717;DHT22;22094;52.130;5.598;2022-12-13T12:31:10;-1.90;99.90
23717;DHT22;22094;52.130;5.598;2022-12-13T12:40:00;-0.90;99.90
23717;DHT22;22094;52.130;5.598;2022-12-13T12:47:37;-2.50;99.90
23717;DHT22;22094;52.130;5.598;2022-12-13T12:52:48;-1.60;99.90
23717;DHT22;22094;52.130;5.598;2022-12-13T12:58:19;1.00;99.90
23717;DHT22;22094;52.130;5.598;2022-12-13T13:03:28;-4.80;99.90
23717;DHT22;22094;52.130;5.598;2022-12-13T13:11:10;1.60;99.90
23717;DHT22;22094;52.130;5.598;2022-12-13T13:16:03;1.30;99.90
23717;DHT22;22094;52.130;5.598;2022-12-13T13:18:48;-1.70;99.90
23717;DHT22;22094;52.130;5.598;2022-12-13T13:24:04;-1.20;99.90
23717;DHT22;22094;52.130;5.598;2022-12-13T13:26:32;-1.50;99.90
23717;DHT22;22094;52.130;5.598;2022-12-13T13:29:21;0.90;99.90
23717;DHT22;22094;52.130;5.598;2022-12-13T13:34:48;-4.90;99.90
23717;DHT22;22094;52.130;5.598;2022-12-13T13:42:28;-1.70;99.90
23717;DHT22;22094;52.130;5.598;2022-12-13T13:45:00;-1.90;99.90
23717;DHT22;22094;52.130;5.598;2022-12-13T13:47:36;-2.10;99.90
23717;DHT22;22094;52.130;5.598;2022-12-13T13:55:25;-2.20;99.90
23717;DHT22;22094;52.130;5.598;2022-12-13T14:01:39;-2.20;99.90
23717;DHT22;22094;52.130;5.598;2022-12-13T14:10:06;-2.30;99.90
23717;DHT22;22094;52.130;5.598;2022-12-13T14:21:07;-2.10;99.90
23717;DHT22;22094;52.130;5.598;2022-12-13T14:27:00;-2.00;99.90
23717;DHT22;22094;52.130;5.598;2022-12-13T14:29:36;-2.10;99.90
23717;DHT22;22094;52.130;5.598;2022-12-13T14:32:09;-2.10;99.90
23717;DHT22;22094;52.130;5.598;2022-12-13T14:34:36;-2.20;99.90
23717;DHT22;22094;52.130;5.598;2022-12-13T14:37:05;-2.20;99.90
23717;DHT22;22094;52.130;5.598;2022-12-13T14:39:32;-2.20;99.90
23717;DHT22;22094;52.130;5.598;2022-12-13T14:42:24;-1.90;99.90
23717;DHT22;22094;52.130;5.598;2022-12-13T14:44:50;-2.40;99.90
23717;DHT22;22094;52.130;5.598;2022-12-13T14:47:16;-2.40;99.90
23717;DHT22;22094;52.130;5.598;2022-12-13T14:49:43;-2.00;99.90
23717;DHT22;22094;52.130;5.598;2022-12-13T14:52:23;-2.10;99.90
23717;DHT22;22094;52.130;5.598;2022-12-13T14:57:21;-2.40;99.90
23717;DHT22;22094;52.130;5.598;2022-12-13T14:59:49;-2.40;99.90
23717;DHT22;22094;52.130;5.598;2022-12-13T15:02:18;-2.40;99.90
23717;DHT22;22094;52.130;5.598;2022-12-13T15:04:44;-2.50;99.90
23717;DHT22;22094;52.130;5.598;2022-12-13T15:07:22;-2.50;99.90
23717;DHT22;22094;52.130;5.598;2022-12-13T15:10:03;-2.60;99.90
23717;DHT22;22094;52.130;5.598;2022-12-13T15:12:29;-2.60;99.90
23717;DHT22;22094;52.130;5.598;2022-12-13T15:15:02;-2.60;99.90
23717;DHT22;22094;52.130;5.598;2022-12-13T15:17:35;-2.70;99.90
23717;DHT22;22094;52.130;5.598;2022-12-13T15:20:16;-2.60;99.90
23717;DHT22;22094;52.130;5.598;2022-12-13T15:22:45;-2.70;99.90
23717;DHT22;22094;52.130;5.598;2022-12-13T15:25:13;-2.70;99.90
23717;DHT22;22094;52.130;5.598;2022-12-13T15:27:39;-2.60;99.90
23717;DHT22;22094;52.130;5.598;2022-12-13T15:30:06;-2.60;99.90
23717;DHT22;22094;52.130;5.598;2022-12-13T15:32:31;-2.70;99.90
23717;DHT22;22094;52.130;5.598;2022-12-13T15:35:13;-2.70;99.90
23717;DHT22;22094;52.130;5.598;2022-12-13T15:37:44;-2.70;99.90
23717;DHT22;22094;52.130;5.598;2022-12-13T15:40:12;-2.70;99.90
23717;DHT22;22094;52.130;5.598;2022-12-13T15:42:43;-2.70;99.90
23717;DHT22;22094;52.130;5.598;2022-12-13T15:45:22;-2.70;99.90
23717;DHT22;22094;52.130;5.598;2022-12-13T15:47:50;-2.70;99.90
23717;DHT22;22094;52.130;5.598;2022-12-13T15:50:48;-2.80;99.90
23717;DHT22;22094;52.130;5.598;2022-12-13T15:53:25;-2.80;99.90
23717;DHT22;22094;52.130;5.598;2022-12-13T15:55:51;-2.80;99.90
23717;DHT22;22094;52.130;5.598;2022-12-13T15:58:35;-2.90;99.90
23717;DHT22;22094;52.130;5.598;2022-12-13T16:01:01;-2.80;99.90
23717;DHT22;22094;52.130;5.598;2022-12-13T16:03:39;-2.80;99.90
23717;DHT22;22094;52.130;5.598;2022-12-13T16:06:06;-2.80;99.90
23717;DHT22;22094;52.130;5.598;2022-12-13T16:08:35;-2.80;99.90
23717;DHT22;22094;52.130;5.598;2022-12-13T16:11:02;-2.90;99.90
23717;DHT22;22094;52.130;5.598;2022-12-13T16:13:33;-2.90;99.90
23717;DHT22;22094;52.130;5.598;2022-12-13T16:16:18;-2.90;99.90
23717;DHT22;22094;52.130;5.598;2022-12-13T16:18:51;-2.90;99.90
23717;DHT22;22094;52.130;5.598;2022-12-13T16:21:17;-2.90;99.90
23717;DHT22;22094;52.130;5.598;2022-12-13T16:23:42;-3.00;99.90
23717;DHT22;22094;52.130;5.598;2022-12-13T16:26:11;-3.00;99.90
23717;DHT22;22094;52.130;5.598;2022-12-13T16:28:38;-3.00;99.90
23717;DHT22;22094;52.130;5.598;2022-12-13T16:31:21;-3.00;99.90
23717;DHT22;22094;52.130;5.598;2022-12-13T16:33:47;-3.00;99.90
23717;DHT22;22094;52.130;5.598;2022-12-13T16:36:13;-3.10;99.90
23717;DHT22;22094;52.130;5.598;2022-12-13T16:38:38;-3.10;99.90
23717;DHT22;22094;52.130;5.598;2022-12-13T16:41:04;-3.10;99.90
23717;DHT22;22094;52.130;5.598;2022-12-13T16:43:33;-3.10;99.90
23717;DHT22;22094;52.130;5.598;2022-12-13T16:46:00;-3.20;99.90
23717;DHT22;22094;52.130;5.598;2022-12-13T16:48:28;-3.10;99.90
23717;DHT22;22094;52.130;5.598;2022-12-13T16:50:53;-3.20;99.90
23717;DHT22;22094;52.130;5.598;2022-12-13T16:53:19;-3.20;99.90
23717;DHT22;22094;52.130;5.598;2022-12-13T16:55:45;-3.20;99.90
23717;DHT22;22094;52.130;5.598;2022-12-13T16:58:13;-3.20;99.90
23717;DHT22;22094;52.130;5.598;2022-12-13T17:00:39;-3.30;99.90
23717;DHT22;22094;52.130;5.598;2022-12-13T17:03:05;-3.30;99.90
23717;DHT22;22094;52.130;5.598;2022-12-13T17:05:32;-3.30;99.90
23717;DHT22;22094;52.130;5.598;2022-12-13T17:07:58;-3.30;99.90
23717;DHT22;22094;52.130;5.598;2022-12-13T17:10:24;-3.30;99.90
23717;DHT22;22094;52.130;5.598;2022-12-13T17:12:51;-3.30;99.90
23717;DHT22;22094;52.130;5.598;2022-12-13T17:15:16;-3.30;99.90
23717;DHT22;22094;52.130;5.598;2022-12-13T17:17:44;-2.90;99.90
23717;DHT22;22094;52.130;5.598;2022-12-13T17:20:13;-3.40;99.90
23717;DHT22;22094;52.130;5.598;2022-12-13T17:22:39;-3.40;99.90
23717;DHT22;22094;52.130;5.598;2022-12-13T17:25:05;-3.40;99.90
23717;DHT22;22094;52.130;5.598;2022-12-13T17:27:31;-3.30;99.90
23717;DHT22;22094;52.130;5.598;2022-12-13T17:29:57;-3.40;99.90
23717;DHT22;22094;52.130;5.598;2022-12-13T17:32:24;-3.40;99.90
23717;DHT22;22094;52.130;5.598;2022-12-13T17:34:50;-3.40;99.90
23717;DHT22;22094;52.130;5.598;2022-12-13T17:37:16;-3.40;99.90
23717;DHT22;22094;52.130;5.598;2022-12-13T17:39:41;-3.40;99.90
23717;DHT22;22094;52.130;5.598;2022-12-13T17:42:07;-3.30;99.90
23717;DHT22;22094;52.130;5.598;2022-12-13T17:44:34;-3.30;99.90
23717;DHT22;22094;52.130;5.598;2022-12-13T17:46:59;-3.30;99.90
23717;DHT22;22094;52.130;5.598;2022-12-13T17:49:25;-3.30;99.90
23717;DHT22;22094;52.130;5.598;2022-12-13T17:51:52;-3.30;99.90